sensor_id;sensor_type;location;lat;lon;timestamp;P1;durP1;ratioP1;P2;durP2;ratioP2
8857;SDS011;4465;50.904;4.696;2022-12-29T00:00:11;2.75;;;1.60;;
8857;SDS011;4465;50.904;4.696;2022-12-29T00:02:41;2.10;;;1.30;;
8857;SDS011;4465;50.904;4.696;2022-12-29T00:05:09;2.58;;;1.30;;
8857;SDS011;4465;50.904;4.696;2022-12-29T00:07:35;4.38;;;1.30;;
8857;SDS011;4465;50.904;4.696;2022-12-29T00:10:04;5.00;;;1.27;;
8857;SDS011;4465;50.904;4.696;2022-12-29T00:12:31;2.10;;;1.30;;
8857;SDS011;4465;50.904;4.696;2022-12-29T00:15:19;3.05;;;1.50;;
8857;SDS011;4465;50.904;4.696;2022-12-29T00:18:03;2.28;;;1.10;;
8857;SDS011;4465;50.904;4.696;2022-12-29T00:20:36;3.13;;;1.25;;
8857;SDS011;4465;50.904;4.696;2022-12-29T00:23:22;2.88;;;1.38;;
8857;SDS011;4465;50.904;4.696;2022-12-29T00:26:10;2.17;;;0.80;;
8857;SDS011;4465;50.904;4.696;2022-12-29T00:29:00;3.53;;;1.10;;
8857;SDS011;4465;50.904;4.696;2022-12-29T00:32:01;3.17;;;1.00;;
8857;SDS011;4465;50.904;4.696;2022-12-29T00:34:48;4.60;;;1.08;;
8857;SDS011;4465;50.904;4.696;2022-12-29T00:37:32;2.15;;;0.90;;
8857;SDS011;4465;50.904;4.696;2022-12-29T00:40:17;4.22;;;1.27;;
8857;SDS011;4465;50.904;4.696;2022-12-29T00:43:03;1.60;;;0.68;;
8857;SDS011;4465;50.904;4.696;2022-12-29T00:45:47;4.18;;;0.98;;
8857;SDS011;4465;50.904;4.696;2022-12-29T00:48:13;2.25;;;0.80;;
8857;SDS011;4465;50.904;4.696;2022-12-29T00:50:39;2.75;;;1.05;;
8857;SDS011;4465;50.904;4.696;2022-12-29T00:53:05;2.75;;;0.90;;
8857;SDS011;4465;50.904;4.696;2022-12-29T00:55:31;3.90;;;1.20;;
8857;SDS011;4465;50.904;4.696;2022-12-29T00:58:05;5.00;;;0.90;;
8857;SDS011;4465;50.904;4.696;2022-12-29T01:00:31;4.00;;;0.88;;
8857;SDS011;4465;50.904;4.696;2022-12-29T01:02:57;4.07;;;1.00;;
8857;SDS011;4465;50.904;4.696;2022-12-29T01:05:23;2.75;;;1.00;;
8857;SDS011;4465;50.904;4.696;2022-12-29T01:07:51;4.93;;;2.47;;
8857;SDS011;4465;50.904;4.696;2022-12-29T01:10:17;4.45;;;1.42;;
8857;SDS011;4465;50.904;4.696;2022-12-29T01:12:43;3.35;;;1.08;;
8857;SDS011;4465;50.904;4.696;2022-12-29T01:15:11;2.13;;;1.02;;
8857;SDS011;4465;50.904;4.696;2022-12-29T01:17:39;3.65;;;0.93;;
8857;SDS011;4465;50.904;4.696;2022-12-29T01:20:08;6.63;;;1.20;;
8857;SDS011;4465;50.904;4.696;2022-12-29T01:22:36;4.43;;;1.35;;
8857;SDS011;4465;50.904;4.696;2022-12-29T01:25:03;7.20;;;1.88;;
8857;SDS011;4465;50.904;4.696;2022-12-29T01:27:29;5.38;;;1.23;;
8857;SDS011;4465;50.904;4.696;2022-12-29T01:29:56;4.80;;;1.10;;
8857;SDS011;4465;50.904;4.696;2022-12-29T01:32:22;7.43;;;1.35;;
8857;SDS011;4465;50.904;4.696;2022-12-29T01:34:49;2.22;;;1.10;;
8857;SDS011;4465;50.904;4.696;2022-12-29T01:37:15;5.05;;;1.13;;
8857;SDS011;4465;50.904;4.696;2022-12-29T01:39:47;9.60;;;1.95;;
8857;SDS011;4465;50.904;4.696;2022-12-29T01:42:17;2.90;;;1.30;;
8857;SDS011;4465;50.904;4.696;2022-12-29T01:47:39;4.32;;;1.20;;
8857;SDS011;4465;50.904;4.696;2022-12-29T01:50:17;4.40;;;1.52;;
8857;SDS011;4465;50.904;4.696;2022-12-29T01:52:50;3.63;;;1.27;;
8857;SDS011;4465;50.904;4.696;2022-12-29T01:55:35;3.88;;;1.40;;
8857;SDS011;4465;50.904;4.696;2022-12-29T01:58:10;5.50;;;1.63;;
8857;SDS011;4465;50.904;4.696;2022-12-29T02:00:41;4.05;;;1.60;;
8857;SDS011;4465;50.904;4.696;2022-12-29T02:03:08;7.55;;;1.63;;
8857;SDS011;4465;50.904;4.696;2022-12-29T02:05:40;3.33;;;1.13;;
8857;SDS011;4465;50.904;4.696;2022-12-29T02:08:23;2.08;;;0.90;;
8857;SDS011;4465;50.904;4.696;2022-12-29T02:10:55;3.97;;;0.80;;
8857;SDS011;4465;50.904;4.696;2022-12-29T02:13:25;3.70;;;0.80;;
8857;SDS011;4465;50.904;4.696;2022-12-29T02:33:52;2.40;;;0.68;;
8857;SDS011;4465;50.904;4.696;2022-12-29T02:36:32;1.30;;;0.50;;
8857;SDS011;4465;50.904;4.696;2022-12-29T02:39:16;1.27;;;0.60;;
8857;SDS011;4465;50.904;4.696;2022-12-29T02:44:52;5.82;;;1.20;;
8857;SDS011;4465;50.904;4.696;2022-12-29T02:49:59;2.15;;;0.50;;
8857;SDS011;4465;50.904;4.696;2022-12-29T02:52:35;3.60;;;0.70;;
8857;SDS011;4465;50.904;4.696;2022-12-29T02:55:07;1.10;;;0.60;;
8857;SDS011;4465;50.904;4.696;2022-12-29T02:57:35;0.98;;;0.40;;
8857;SDS011;4465;50.904;4.696;2022-12-29T03:05:51;6.40;;;0.80;;
8857;SDS011;4465;50.904;4.696;2022-12-29T03:08:42;5.97;;;0.93;;
8857;SDS011;4465;50.904;4.696;2022-12-29T03:11:33;5.40;;;0.77;;
8857;SDS011;4465;50.904;4.696;2022-12-29T03:14:31;4.68;;;0.70;;
8857;SDS011;4465;50.904;4.696;2022-12-29T03:19:59;3.08;;;0.63;;
8857;SDS011;4465;50.904;4.696;2022-12-29T03:22:32;2.30;;;0.50;;
8857;SDS011;4465;50.904;4.696;2022-12-29T03:27:44;3.42;;;0.47;;
8857;SDS011;4465;50.904;4.696;2022-12-29T03:30:14;3.38;;;0.60;;
8857;SDS011;4465;50.904;4.696;2022-12-29T03:32:45;2.80;;;0.80;;
8857;SDS011;4465;50.904;4.696;2022-12-29T03:35:15;5.53;;;1.23;;
8857;SDS011;4465;50.904;4.696;2022-12-29T03:37:46;5.78;;;0.65;;
8857;SDS011;4465;50.904;4.696;2022-12-29T03:40:18;5.50;;;0.70;;
8857;SDS011;4465;50.904;4.696;2022-12-29T03:42:49;4.88;;;0.95;;
8857;SDS011;4465;50.904;4.696;2022-12-29T03:45:16;2.57;;;0.60;;
8857;SDS011;4465;50.904;4.696;2022-12-29T03:47:45;3.95;;;0.60;;
8857;SDS011;4465;50.904;4.696;2022-12-29T03:50:11;1.42;;;0.47;;
8857;SDS011;4465;50.904;4.696;2022-12-29T03:55:04;6.53;;;1.25;;
8857;SDS011;4465;50.904;4.696;2022-12-29T03:57:31;5.97;;;0.98;;
8857;SDS011;4465;50.904;4.696;2022-12-29T03:59:57;2.47;;;1.23;;
8857;SDS011;4465;50.904;4.696;2022-12-29T04:02:26;4.82;;;1.08;;
8857;SDS011;4465;50.904;4.696;2022-12-29T04:04:54;4.45;;;1.02;;
8857;SDS011;4465;50.904;4.696;2022-12-29T04:07:20;7.15;;;1.40;;
8857;SDS011;4465;50.904;4.696;2022-12-29T04:09:50;9.48;;;1.42;;
8857;SDS011;4465;50.904;4.696;2022-12-29T04:12:16;5.40;;;1.23;;
8857;SDS011;4465;50.904;4.696;2022-12-29T04:14:42;7.38;;;1.00;;
8857;SDS011;4465;50.904;4.696;2022-12-29T04:17:08;2.92;;;1.00;;
8857;SDS011;4465;50.904;4.696;2022-12-29T04:19:34;4.55;;;1.00;;
8857;SDS011;4465;50.904;4.696;2022-12-29T04:22:02;11.65;;;1.38;;
8857;SDS011;4465;50.904;4.696;2022-12-29T04:24:29;6.03;;;1.10;;
8857;SDS011;4465;50.904;4.696;2022-12-29T04:26:55;8.98;;;1.10;;
8857;SDS011;4465;50.904;4.696;2022-12-29T04:29:21;8.13;;;1.33;;
8857;SDS011;4465;50.904;4.696;2022-12-29T04:31:47;8.02;;;1.20;;
8857;SDS011;4465;50.904;4.696;2022-12-29T04:34:13;7.35;;;1.27;;
8857;SDS011;4465;50.904;4.696;2022-12-29T04:36:39;6.57;;;1.33;;
8857;SDS011;4465;50.904;4.696;2022-12-29T04:39:08;9.63;;;1.50;;
8857;SDS011;4465;50.904;4.696;2022-12-29T04:41:34;3.72;;;0.88;;
8857;SDS011;4465;50.904;4.696;2022-12-29T04:44:03;6.63;;;0.98;;
8857;SDS011;4465;50.904;4.696;2022-12-29T04:46:28;6.38;;;1.13;;
8857;SDS011;4465;50.904;4.696;2022-12-29T04:48:54;10.80;;;2.45;;
8857;SDS011;4465;50.904;4.696;2022-12-29T04:51:21;6.90;;;1.33;;
8857;SDS011;4465;50.904;4.696;2022-12-29T04:53:47;6.63;;;1.23;;
8857;SDS011;4465;50.904;4.696;2022-12-29T04:56:13;5.20;;;0.85;;
8857;SDS011;4465;50.904;4.696;2022-12-29T04:58:39;6.90;;;1.05;;
8857;SDS011;4465;50.904;4.696;2022-12-29T05:01:05;11.07;;;1.98;;
8857;SDS011;4465;50.904;4.696;2022-12-29T05:03:32;6.90;;;1.35;;
8857;SDS011;4465;50.904;4.696;2022-12-29T05:05:58;7.43;;;1.00;;
8857;SDS011;4465;50.904;4.696;2022-12-29T05:08:24;5.82;;;1.10;;
8857;SDS011;4465;50.904;4.696;2022-12-29T05:10:50;7.82;;;1.10;;
8857;SDS011;4465;50.904;4.696;2022-12-29T05:13:17;8.50;;;1.00;;
8857;SDS011;4465;50.904;4.696;2022-12-29T05:15:53;10.70;;;1.35;;
8857;SDS011;4465;50.904;4.696;2022-12-29T05:18:19;9.38;;;1.73;;
8857;SDS011;4465;50.904;4.696;2022-12-29T05:20:45;7.80;;;1.20;;
8857;SDS011;4465;50.904;4.696;2022-12-29T05:23:12;4.23;;;1.10;;
8857;SDS011;4465;50.904;4.696;2022-12-29T05:25:41;9.80;;;1.33;;
8857;SDS011;4465;50.904;4.696;2022-12-29T05:28:08;6.82;;;1.15;;
8857;SDS011;4465;50.904;4.696;2022-12-29T05:30:34;5.20;;;1.10;;
8857;SDS011;4465;50.904;4.696;2022-12-29T05:33:00;3.42;;;1.02;;
8857;SDS011;4465;50.904;4.696;2022-12-29T05:35:25;5.03;;;1.08;;
8857;SDS011;4465;50.904;4.696;2022-12-29T05:37:51;9.35;;;1.80;;
8857;SDS011;4465;50.904;4.696;2022-12-29T05:40:17;4.78;;;1.00;;
8857;SDS011;4465;50.904;4.696;2022-12-29T05:42:44;5.63;;;1.20;;
8857;SDS011;4465;50.904;4.696;2022-12-29T05:45:09;8.13;;;1.08;;
8857;SDS011;4465;50.904;4.696;2022-12-29T05:47:36;6.32;;;1.20;;
8857;SDS011;4465;50.904;4.696;2022-12-29T05:50:04;11.85;;;1.45;;
8857;SDS011;4465;50.904;4.696;2022-12-29T05:52:30;7.18;;;1.45;;
8857;SDS011;4465;50.904;4.696;2022-12-29T05:54:56;7.50;;;1.40;;
8857;SDS011;4465;50.904;4.696;2022-12-29T05:57:22;9.57;;;1.40;;
8857;SDS011;4465;50.904;4.696;2022-12-29T05:59:48;7.03;;;1.08;;
8857;SDS011;4465;50.904;4.696;2022-12-29T06:02:14;6.45;;;1.20;;
8857;SDS011;4465;50.904;4.696;2022-12-29T06:04:42;10.82;;;1.25;;
8857;SDS011;4465;50.904;4.696;2022-12-29T06:07:08;14.75;;;2.00;;
8857;SDS011;4465;50.904;4.696;2022-12-29T06:09:34;13.93;;;1.30;;
8857;SDS011;4465;50.904;4.696;2022-12-29T06:12:02;7.93;;;1.50;;
8857;SDS011;4465;50.904;4.696;2022-12-29T06:14:28;6.03;;;1.20;;
8857;SDS011;4465;50.904;4.696;2022-12-29T06:16:54;8.15;;;1.73;;
8857;SDS011;4465;50.904;4.696;2022-12-29T06:19:20;10.52;;;1.42;;
8857;SDS011;4465;50.904;4.696;2022-12-29T06:21:46;15.65;;;1.40;;
8857;SDS011;4465;50.904;4.696;2022-12-29T06:24:12;10.30;;;1.52;;
8857;SDS011;4465;50.904;4.696;2022-12-29T06:26:38;7.10;;;1.70;;
8857;SDS011;4465;50.904;4.696;2022-12-29T06:29:05;9.52;;;3.00;;
8857;SDS011;4465;50.904;4.696;2022-12-29T06:31:33;9.13;;;1.30;;
8857;SDS011;4465;50.904;4.696;2022-12-29T06:34:02;5.82;;;1.13;;
8857;SDS011;4465;50.904;4.696;2022-12-29T06:36:28;18.88;;;2.10;;
8857;SDS011;4465;50.904;4.696;2022-12-29T06:38:54;9.85;;;1.60;;
8857;SDS011;4465;50.904;4.696;2022-12-29T06:41:20;13.25;;;1.60;;
8857;SDS011;4465;50.904;4.696;2022-12-29T06:43:46;7.40;;;1.33;;
8857;SDS011;4465;50.904;4.696;2022-12-29T06:46:15;16.85;;;1.80;;
8857;SDS011;4465;50.904;4.696;2022-12-29T06:48:41;9.18;;;1.58;;
8857;SDS011;4465;50.904;4.696;2022-12-29T06:51:07;13.90;;;1.52;;
8857;SDS011;4465;50.904;4.696;2022-12-29T06:53:36;12.13;;;1.52;;
8857;SDS011;4465;50.904;4.696;2022-12-29T06:56:02;9.93;;;1.65;;
8857;SDS011;4465;50.904;4.696;2022-12-29T06:58:28;9.65;;;1.98;;
8857;SDS011;4465;50.904;4.696;2022-12-29T07:00:54;13.43;;;2.22;;
8857;SDS011;4465;50.904;4.696;2022-12-29T07:03:20;8.23;;;1.50;;
8857;SDS011;4465;50.904;4.696;2022-12-29T07:05:46;12.52;;;1.98;;
8857;SDS011;4465;50.904;4.696;2022-12-29T07:08:12;17.40;;;2.05;;
8857;SDS011;4465;50.904;4.696;2022-12-29T07:10:41;8.98;;;1.55;;
8857;SDS011;4465;50.904;4.696;2022-12-29T07:13:10;11.77;;;1.75;;
8857;SDS011;4465;50.904;4.696;2022-12-29T07:15:36;6.57;;;1.50;;
8857;SDS011;4465;50.904;4.696;2022-12-29T07:18:03;10.10;;;1.52;;
8857;SDS011;4465;50.904;4.696;2022-12-29T07:20:30;11.10;;;1.73;;
8857;SDS011;4465;50.904;4.696;2022-12-29T07:22:56;11.73;;;1.60;;
8857;SDS011;4465;50.904;4.696;2022-12-29T07:25:22;8.68;;;1.42;;
8857;SDS011;4465;50.904;4.696;2022-12-29T07:27:49;10.88;;;2.03;;
8857;SDS011;4465;50.904;4.696;2022-12-29T07:30:17;8.98;;;1.77;;
8857;SDS011;4465;50.904;4.696;2022-12-29T07:32:44;10.52;;;1.52;;
8857;SDS011;4465;50.904;4.696;2022-12-29T07:35:13;11.95;;;2.78;;
8857;SDS011;4465;50.904;4.696;2022-12-29T07:37:48;12.45;;;1.67;;
8857;SDS011;4465;50.904;4.696;2022-12-29T07:40:14;10.07;;;2.05;;
8857;SDS011;4465;50.904;4.696;2022-12-29T07:42:40;15.15;;;2.22;;
8857;SDS011;4465;50.904;4.696;2022-12-29T07:45:06;10.10;;;1.70;;
8857;SDS011;4465;50.904;4.696;2022-12-29T07:47:34;8.45;;;1.75;;
8857;SDS011;4465;50.904;4.696;2022-12-29T07:50:00;11.52;;;1.90;;
8857;SDS011;4465;50.904;4.696;2022-12-29T07:52:29;8.10;;;1.85;;
8857;SDS011;4465;50.904;4.696;2022-12-29T07:54:55;10.68;;;1.67;;
8857;SDS011;4465;50.904;4.696;2022-12-29T07:57:23;13.45;;;2.15;;
8857;SDS011;4465;50.904;4.696;2022-12-29T07:59:49;12.88;;;2.40;;
8857;SDS011;4465;50.904;4.696;2022-12-29T08:02:15;16.85;;;2.03;;
8857;SDS011;4465;50.904;4.696;2022-12-29T08:04:41;17.02;;;2.25;;
8857;SDS011;4465;50.904;4.696;2022-12-29T08:07:08;7.03;;;1.45;;
8857;SDS011;4465;50.904;4.696;2022-12-29T08:09:34;8.48;;;1.73;;
8857;SDS011;4465;50.904;4.696;2022-12-29T08:12:00;9.63;;;1.85;;
8857;SDS011;4465;50.904;4.696;2022-12-29T08:14:28;9.05;;;2.30;;
8857;SDS011;4465;50.904;4.696;2022-12-29T08:16:57;20.35;;;2.25;;
8857;SDS011;4465;50.904;4.696;2022-12-29T08:19:23;11.95;;;1.80;;
8857;SDS011;4465;50.904;4.696;2022-12-29T08:21:49;14.15;;;2.00;;
8857;SDS011;4465;50.904;4.696;2022-12-29T08:24:15;12.40;;;1.75;;
8857;SDS011;4465;50.904;4.696;2022-12-29T08:26:41;10.32;;;2.10;;
8857;SDS011;4465;50.904;4.696;2022-12-29T08:29:07;13.65;;;1.98;;
8857;SDS011;4465;50.904;4.696;2022-12-29T08:31:34;13.45;;;2.45;;
8857;SDS011;4465;50.904;4.696;2022-12-29T08:34:00;12.10;;;2.75;;
8857;SDS011;4465;50.904;4.696;2022-12-29T08:36:28;10.70;;;1.92;;
8857;SDS011;4465;50.904;4.696;2022-12-29T08:38:56;17.33;;;2.65;;
8857;SDS011;4465;50.904;4.696;2022-12-29T08:41:22;11.40;;;2.63;;
8857;SDS011;4465;50.904;4.696;2022-12-29T08:43:48;11.73;;;1.63;;
8857;SDS011;4465;50.904;4.696;2022-12-29T08:46:15;14.35;;;2.28;;
8857;SDS011;4465;50.904;4.696;2022-12-29T08:48:42;13.52;;;2.10;;
8857;SDS011;4465;50.904;4.696;2022-12-29T08:51:08;11.57;;;1.90;;
8857;SDS011;4465;50.904;4.696;2022-12-29T08:53:34;15.45;;;2.15;;
8857;SDS011;4465;50.904;4.696;2022-12-29T08:56:00;19.88;;;2.10;;
8857;SDS011;4465;50.904;4.696;2022-12-29T08:58:29;19.25;;;2.47;;
8857;SDS011;4465;50.904;4.696;2022-12-29T09:00:55;12.70;;;2.20;;
8857;SDS011;4465;50.904;4.696;2022-12-29T09:03:23;12.57;;;3.42;;
8857;SDS011;4465;50.904;4.696;2022-12-29T09:08:17;11.48;;;1.70;;
8857;SDS011;4465;50.904;4.696;2022-12-29T09:10:44;9.15;;;1.92;;
8857;SDS011;4465;50.904;4.696;2022-12-29T09:13:11;9.85;;;1.80;;
8857;SDS011;4465;50.904;4.696;2022-12-29T09:15:37;17.33;;;2.15;;
8857;SDS011;4465;50.904;4.696;2022-12-29T09:18:04;11.65;;;2.67;;
8857;SDS011;4465;50.904;4.696;2022-12-29T09:20:31;13.18;;;1.55;;
8857;SDS011;4465;50.904;4.696;2022-12-29T09:22:57;12.05;;;2.20;;
8857;SDS011;4465;50.904;4.696;2022-12-29T09:25:23;9.38;;;1.90;;
8857;SDS011;4465;50.904;4.696;2022-12-29T09:27:50;10.15;;;1.60;;
8857;SDS011;4465;50.904;4.696;2022-12-29T09:30:18;17.73;;;2.13;;
8857;SDS011;4465;50.904;4.696;2022-12-29T09:32:47;14.85;;;2.55;;
8857;SDS011;4465;50.904;4.696;2022-12-29T09:35:15;15.43;;;2.65;;
8857;SDS011;4465;50.904;4.696;2022-12-29T09:37:42;9.10;;;2.15;;
8857;SDS011;4465;50.904;4.696;2022-12-29T09:40:19;10.23;;;2.22;;
8857;SDS011;4465;50.904;4.696;2022-12-29T09:42:55;12.68;;;2.03;;
8857;SDS011;4465;50.904;4.696;2022-12-29T09:45:35;16.85;;;2.55;;
8857;SDS011;4465;50.904;4.696;2022-12-29T09:48:30;15.35;;;2.03;;
8857;SDS011;4465;50.904;4.696;2022-12-29T09:51:03;16.10;;;2.10;;
8857;SDS011;4465;50.904;4.696;2022-12-29T09:53:36;15.52;;;2.75;;
8857;SDS011;4465;50.904;4.696;2022-12-29T09:56:10;15.95;;;2.28;;
8857;SDS011;4465;50.904;4.696;2022-12-29T09:58:48;13.55;;;2.28;;
8857;SDS011;4465;50.904;4.696;2022-12-29T10:01:36;16.17;;;2.45;;
8857;SDS011;4465;50.904;4.696;2022-12-29T10:04:09;11.68;;;2.45;;
8857;SDS011;4465;50.904;4.696;2022-12-29T10:06:45;11.85;;;2.17;;
8857;SDS011;4465;50.904;4.696;2022-12-29T10:12:21;14.27;;;1.90;;
8857;SDS011;4465;50.904;4.696;2022-12-29T10:23:39;20.05;;;3.15;;
8857;SDS011;4465;50.904;4.696;2022-12-29T10:26:21;16.23;;;2.53;;
8857;SDS011;4465;50.904;4.696;2022-12-29T10:34:31;17.42;;;2.63;;
8857;SDS011;4465;50.904;4.696;2022-12-29T10:37:24;11.73;;;2.17;;
8857;SDS011;4465;50.904;4.696;2022-12-29T10:40:18;11.50;;;2.43;;
8857;SDS011;4465;50.904;4.696;2022-12-29T10:42:52;16.05;;;2.25;;
8857;SDS011;4465;50.904;4.696;2022-12-29T10:45:19;11.60;;;2.00;;
8857;SDS011;4465;50.904;4.696;2022-12-29T10:47:52;15.43;;;2.17;;
8857;SDS011;4465;50.904;4.696;2022-12-29T10:50:19;20.90;;;3.28;;
8857;SDS011;4465;50.904;4.696;2022-12-29T10:52:46;16.08;;;2.47;;
8857;SDS011;4465;50.904;4.696;2022-12-29T10:57:43;11.18;;;1.85;;
8857;SDS011;4465;50.904;4.696;2022-12-29T11:07:59;10.65;;;2.55;;
8857;SDS011;4465;50.904;4.696;2022-12-29T11:10:30;13.30;;;2.38;;
8857;SDS011;4465;50.904;4.696;2022-12-29T11:13:03;13.80;;;2.15;;
8857;SDS011;4465;50.904;4.696;2022-12-29T11:15:54;11.90;;;2.28;;
8857;SDS011;4465;50.904;4.696;2022-12-29T11:18:33;11.30;;;1.98;;
8857;SDS011;4465;50.904;4.696;2022-12-29T11:21:03;7.80;;;2.05;;
8857;SDS011;4465;50.904;4.696;2022-12-29T11:24:03;11.50;;;2.75;;
8857;SDS011;4465;50.904;4.696;2022-12-29T11:26:32;12.77;;;2.30;;
8857;SDS011;4465;50.904;4.696;2022-12-29T11:31:46;15.45;;;2.50;;
8857;SDS011;4465;50.904;4.696;2022-12-29T11:34:18;14.63;;;2.15;;
8857;SDS011;4465;50.904;4.696;2022-12-29T11:37:17;16.60;;;2.17;;
8857;SDS011;4465;50.904;4.696;2022-12-29T11:39:52;11.50;;;1.95;;
8857;SDS011;4465;50.904;4.696;2022-12-29T11:43:22;12.50;;;2.20;;
8857;SDS011;4465;50.904;4.696;2022-12-29T11:45:18;13.05;;;1.92;;
8857;SDS011;4465;50.904;4.696;2022-12-29T11:47:45;15.73;;;2.22;;
8857;SDS011;4465;50.904;4.696;2022-12-29T11:50:18;16.85;;;2.60;;
8857;SDS011;4465;50.904;4.696;2022-12-29T11:52:50;12.73;;;1.83;;
8857;SDS011;4465;50.904;4.696;2022-12-29T11:55:30;16.90;;;1.88;;
8857;SDS011;4465;50.904;4.696;2022-12-29T11:58:01;13.10;;;2.42;;
8857;SDS011;4465;50.904;4.696;2022-12-29T12:00:31;17.48;;;2.65;;
8857;SDS011;4465;50.904;4.696;2022-12-29T12:03:00;12.68;;;2.17;;
8857;SDS011;4465;50.904;4.696;2022-12-29T12:07:59;14.68;;;1.98;;
8857;SDS011;4465;50.904;4.696;2022-12-29T12:10:37;12.07;;;1.75;;
8857;SDS011;4465;50.904;4.696;2022-12-29T12:15:52;8.45;;;1.90;;
8857;SDS011;4465;50.904;4.696;2022-12-29T12:20:58;11.40;;;2.40;;
8857;SDS011;4465;50.904;4.696;2022-12-29T12:26:17;10.90;;;2.33;;
8857;SDS011;4465;50.904;4.696;2022-12-29T12:34:37;17.05;;;2.10;;
8857;SDS011;4465;50.904;4.696;2022-12-29T12:37:11;13.48;;;2.25;;
8857;SDS011;4465;50.904;4.696;2022-12-29T12:48:21;12.88;;;2.20;;
8857;SDS011;4465;50.904;4.696;2022-12-29T12:53:44;10.80;;;2.10;;
8857;SDS011;4465;50.904;4.696;2022-12-29T12:56:33;12.23;;;2.45;;
8857;SDS011;4465;50.904;4.696;2022-12-29T13:02:08;17.58;;;2.38;;
8857;SDS011;4465;50.904;4.696;2022-12-29T13:11:20;8.57;;;1.90;;
8857;SDS011;4465;50.904;4.696;2022-12-29T13:19:37;9.70;;;2.03;;
8857;SDS011;4465;50.904;4.696;2022-12-29T13:22:36;11.52;;;1.90;;
8857;SDS011;4465;50.904;4.696;2022-12-29T13:25:29;6.43;;;1.63;;
8857;SDS011;4465;50.904;4.696;2022-12-29T13:28:06;10.50;;;2.08;;
8857;SDS011;4465;50.904;4.696;2022-12-29T13:36:19;13.57;;;2.80;;
8857;SDS011;4465;50.904;4.696;2022-12-29T13:41:58;9.52;;;1.92;;
8857;SDS011;4465;50.904;4.696;2022-12-29T13:44:45;11.48;;;1.90;;
8857;SDS011;4465;50.904;4.696;2022-12-29T13:47:31;12.25;;;1.92;;
8857;SDS011;4465;50.904;4.696;2022-12-29T13:50:03;9.40;;;1.60;;
8857;SDS011;4465;50.904;4.696;2022-12-29T13:52:39;10.27;;;1.90;;
8857;SDS011;4465;50.904;4.696;2022-12-29T13:55:51;10.85;;;1.63;;
8857;SDS011;4465;50.904;4.696;2022-12-29T13:58:44;15.40;;;2.42;;
8857;SDS011;4465;50.904;4.696;2022-12-29T14:01:32;16.00;;;2.70;;
8857;SDS011;4465;50.904;4.696;2022-12-29T14:04:16;11.07;;;2.00;;
8857;SDS011;4465;50.904;4.696;2022-12-29T14:07:01;14.88;;;2.35;;
8857;SDS011;4465;50.904;4.696;2022-12-29T14:12:38;21.80;;;2.88;;
8857;SDS011;4465;50.904;4.696;2022-12-29T14:17:39;9.75;;;2.10;;
8857;SDS011;4465;50.904;4.696;2022-12-29T14:20:18;10.40;;;2.38;;
8857;SDS011;4465;50.904;4.696;2022-12-29T14:23:01;16.70;;;3.55;;
8857;SDS011;4465;50.904;4.696;2022-12-29T14:28:30;17.25;;;2.40;;
8857;SDS011;4465;50.904;4.696;2022-12-29T14:31:02;16.30;;;2.78;;
8857;SDS011;4465;50.904;4.696;2022-12-29T14:34:36;13.02;;;2.35;;
8857;SDS011;4465;50.904;4.696;2022-12-29T14:47:19;15.98;;;2.85;;
8857;SDS011;4465;50.904;4.696;2022-12-29T14:49:54;15.10;;;2.47;;
8857;SDS011;4465;50.904;4.696;2022-12-29T14:52:25;14.07;;;2.33;;
8857;SDS011;4465;50.904;4.696;2022-12-29T14:54:54;18.50;;;2.65;;
8857;SDS011;4465;50.904;4.696;2022-12-29T14:57:48;19.20;;;2.60;;
8857;SDS011;4465;50.904;4.696;2022-12-29T15:02:49;21.50;;;3.25;;
8857;SDS011;4465;50.904;4.696;2022-12-29T15:05:23;17.98;;;2.72;;
8857;SDS011;4465;50.904;4.696;2022-12-29T15:08:00;14.13;;;1.17;;
8857;SDS011;4465;50.904;4.696;2022-12-29T15:10:31;7.72;;;1.40;;
8857;SDS011;4465;50.904;4.696;2022-12-29T15:13:18;6.43;;;1.90;;
8857;SDS011;4465;50.904;4.696;2022-12-29T15:15:48;9.80;;;1.63;;
8857;SDS011;4465;50.904;4.696;2022-12-29T15:18:25;9.40;;;2.28;;
8857;SDS011;4465;50.904;4.696;2022-12-29T15:21:05;7.43;;;1.90;;
8857;SDS011;4465;50.904;4.696;2022-12-29T15:23:32;9.93;;;2.35;;
8857;SDS011;4465;50.904;4.696;2022-12-29T15:26:01;17.08;;;3.40;;
8857;SDS011;4465;50.904;4.696;2022-12-29T15:28:45;10.35;;;1.95;;
8857;SDS011;4465;50.904;4.696;2022-12-29T15:33:50;11.80;;;2.10;;
8857;SDS011;4465;50.904;4.696;2022-12-29T15:36:34;6.32;;;1.70;;
8857;SDS011;4465;50.904;4.696;2022-12-29T15:39:17;12.88;;;2.20;;
8857;SDS011;4465;50.904;4.696;2022-12-29T15:41:56;13.05;;;2.55;;
8857;SDS011;4465;50.904;4.696;2022-12-29T15:44:31;18.10;;;1.93;;
8857;SDS011;4465;50.904;4.696;2022-12-29T15:47:25;6.07;;;1.40;;
8857;SDS011;4465;50.904;4.696;2022-12-29T15:50:05;10.93;;;1.70;;
8857;SDS011;4465;50.904;4.696;2022-12-29T15:52:38;10.13;;;1.85;;
8857;SDS011;4465;50.904;4.696;2022-12-29T15:55:05;8.32;;;1.83;;
8857;SDS011;4465;50.904;4.696;2022-12-29T15:57:43;9.52;;;1.40;;
8857;SDS011;4465;50.904;4.696;2022-12-29T16:00:23;6.05;;;1.77;;
8857;SDS011;4465;50.904;4.696;2022-12-29T16:02:51;10.48;;;1.80;;
8857;SDS011;4465;50.904;4.696;2022-12-29T16:05:19;9.55;;;2.03;;
8857;SDS011;4465;50.904;4.696;2022-12-29T16:07:52;10.52;;;1.98;;
8857;SDS011;4465;50.904;4.696;2022-12-29T16:16:37;14.93;;;2.30;;
8857;SDS011;4465;50.904;4.696;2022-12-29T16:21:55;9.65;;;2.20;;
8857;SDS011;4465;50.904;4.696;2022-12-29T16:24:25;14.93;;;4.43;;
8857;SDS011;4465;50.904;4.696;2022-12-29T16:27:00;13.85;;;2.85;;
8857;SDS011;4465;50.904;4.696;2022-12-29T16:29:33;16.63;;;2.85;;
8857;SDS011;4465;50.904;4.696;2022-12-29T16:32:00;9.65;;;3.35;;
8857;SDS011;4465;50.904;4.696;2022-12-29T16:34:35;10.52;;;2.15;;
8857;SDS011;4465;50.904;4.696;2022-12-29T16:39:55;16.52;;;2.67;;
8857;SDS011;4465;50.904;4.696;2022-12-29T16:42:45;14.10;;;3.00;;
8857;SDS011;4465;50.904;4.696;2022-12-29T16:47:45;15.07;;;2.83;;
8857;SDS011;4465;50.904;4.696;2022-12-29T16:50:13;16.17;;;2.80;;
8857;SDS011;4465;50.904;4.696;2022-12-29T16:52:50;16.45;;;3.08;;
8857;SDS011;4465;50.904;4.696;2022-12-29T16:55:16;19.40;;;3.05;;
8857;SDS011;4465;50.904;4.696;2022-12-29T16:57:47;13.43;;;2.92;;
8857;SDS011;4465;50.904;4.696;2022-12-29T17:00:18;22.25;;;3.03;;
8857;SDS011;4465;50.904;4.696;2022-12-29T17:02:50;21.40;;;3.72;;
8857;SDS011;4465;50.904;4.696;2022-12-29T17:05:18;22.23;;;2.97;;
8857;SDS011;4465;50.904;4.696;2022-12-29T17:07:44;25.45;;;3.97;;
8857;SDS011;4465;50.904;4.696;2022-12-29T17:10:11;18.20;;;3.35;;
8857;SDS011;4465;50.904;4.696;2022-12-29T17:12:41;23.85;;;2.78;;
8857;SDS011;4465;50.904;4.696;2022-12-29T17:17:51;17.33;;;3.15;;
8857;SDS011;4465;50.904;4.696;2022-12-29T17:22:56;22.90;;;3.08;;
8857;SDS011;4465;50.904;4.696;2022-12-29T17:25:33;28.50;;;4.18;;
8857;SDS011;4465;50.904;4.696;2022-12-29T17:28:07;22.73;;;3.30;;
8857;SDS011;4465;50.904;4.696;2022-12-29T17:30:44;26.95;;;5.00;;
8857;SDS011;4465;50.904;4.696;2022-12-29T17:33:13;21.15;;;3.75;;
8857;SDS011;4465;50.904;4.696;2022-12-29T17:35:42;22.65;;;3.33;;
8857;SDS011;4465;50.904;4.696;2022-12-29T17:38:28;15.00;;;3.30;;
8857;SDS011;4465;50.904;4.696;2022-12-29T17:40:56;22.40;;;3.42;;
8857;SDS011;4465;50.904;4.696;2022-12-29T17:43:23;17.88;;;2.95;;
8857;SDS011;4465;50.904;4.696;2022-12-29T17:45:51;23.83;;;3.40;;
8857;SDS011;4465;50.904;4.696;2022-12-29T17:48:19;23.70;;;2.97;;
8857;SDS011;4465;50.904;4.696;2022-12-29T17:50:46;34.65;;;5.97;;
8857;SDS011;4465;50.904;4.696;2022-12-29T17:53:20;19.65;;;2.80;;
8857;SDS011;4465;50.904;4.696;2022-12-29T17:55:52;12.88;;;2.45;;
8857;SDS011;4465;50.904;4.696;2022-12-29T17:58:22;12.85;;;2.55;;
8857;SDS011;4465;50.904;4.696;2022-12-29T18:00:53;16.85;;;2.88;;
8857;SDS011;4465;50.904;4.696;2022-12-29T18:03:22;20.27;;;3.53;;
8857;SDS011;4465;50.904;4.696;2022-12-29T18:05:53;20.08;;;3.45;;
8857;SDS011;4465;50.904;4.696;2022-12-29T18:08:19;17.35;;;2.72;;
8857;SDS011;4465;50.904;4.696;2022-12-29T18:10:46;19.40;;;3.28;;
8857;SDS011;4465;50.904;4.696;2022-12-29T18:13:25;17.65;;;2.65;;
8857;SDS011;4465;50.904;4.696;2022-12-29T18:15:53;19.65;;;3.22;;
8857;SDS011;4465;50.904;4.696;2022-12-29T18:18:24;15.03;;;3.20;;
8857;SDS011;4465;50.904;4.696;2022-12-29T18:20:52;27.95;;;3.22;;
8857;SDS011;4465;50.904;4.696;2022-12-29T18:23:30;16.98;;;2.92;;